createdAt,value
2023-09-09T16:08:16.078Z,100984.66
2023-09-09T16:13:08.521Z,100959.41
2023-09-09T16:18:01.552Z,100977.63
2023-09-09T16:22:53.916Z,100975.56
2023-09-09T16:27:46.749Z,100989.72
2023-09-09T16:32:39.496Z,100945.09
2023-09-09T16:37:31.895Z,100981.16
2023-09-09T16:42:24.881Z,100988.44
2023-09-09T16:47:18.453Z,100958.47
2023-09-09T16:52:10.732Z,100997.88
2023-09-09T16:57:08.172Z,100928.84
2023-09-09T17:02:00.595Z,100986.38
2023-09-09T17:06:52.799Z,100961.69
2023-09-09T17:11:44.877Z,100982.91
2023-09-09T17:16:37.455Z,100965.34
2023-09-09T17:21:30.918Z,100987.03
2023-09-09T17:26:23.905Z,100955.00
2023-09-09T17:31:17.290Z,101007.59
2023-09-09T17:36:09.763Z,100996.22
2023-09-09T17:41:01.843Z,101015.53
2023-09-09T17:45:55.379Z,100998.66
2023-09-09T17:50:50.607Z,101012.88
2023-09-09T17:55:43.306Z,100977.75
2023-09-09T18:00:35.533Z,100976.34
2023-09-09T18:05:37.618Z,101033.22
2023-09-09T18:10:29.881Z,101040.22
2023-09-09T18:15:22.781Z,101037.97
2023-09-09T18:20:14.859Z,101033.94
2023-09-09T18:25:06.990Z,101031.66
2023-09-09T18:30:01.343Z,101049.22
2023-09-09T18:34:54.631Z,101041.94
2023-09-09T18:39:46.717Z,101053.13
2023-09-09T18:44:41.664Z,101050.13
2023-09-09T18:49:36.846Z,101068.50
2023-09-09T18:54:29.061Z,101041.78
2023-09-09T18:59:21.275Z,101061.22
2023-09-09T19:04:14.663Z,101066.13
2023-09-09T19:09:08.460Z,101075.19
2023-09-09T19:14:00.832Z,101076.28
2023-09-09T19:18:54.585Z,101060.88
2023-09-09T19:23:46.689Z,101083.38
2023-09-09T19:28:41.919Z,101060.16
2023-09-09T19:33:35.900Z,101099.38
2023-09-09T19:38:28.360Z,101033.25
2023-09-09T19:43:24.899Z,101088.44
2023-09-09T19:48:17.173Z,101099.28
2023-09-09T19:53:10.994Z,101052.38
2023-09-09T19:58:06.083Z,101097.84
2023-09-09T20:02:58.255Z,101103.22
2023-09-09T20:07:56.175Z,101080.41
2023-09-09T20:12:50.238Z,101057.72
2023-09-09T20:17:45.873Z,101108.75
2023-09-09T20:22:43.862Z,101078.25
2023-09-09T20:27:36.035Z,101106.25
2023-09-09T20:32:28.343Z,101079.25
2023-09-09T20:37:20.768Z,101122.66
2023-09-09T20:42:13.214Z,101109.53
2023-09-09T20:47:11.469Z,101113.88
2023-09-09T20:52:07.736Z,101073.41
2023-09-09T20:57:00.781Z,101108.34
2023-09-09T21:01:53.230Z,101121.00
2023-09-09T21:06:45.227Z,101105.34
2023-09-09T21:11:38.004Z,101101.66
2023-09-09T21:17:01.224Z,101111.00
2023-09-09T21:21:53.458Z,101094.47
2023-09-09T21:26:46.118Z,101104.06
2023-09-09T21:31:38.430Z,101040.00
2023-09-09T21:36:30.676Z,101106.41
2023-09-09T21:41:22.634Z,101043.06
2023-09-09T21:46:14.793Z,101120.41
2023-09-09T21:51:06.819Z,101118.81
2023-09-09T21:56:00.306Z,101110.03
2023-09-09T22:00:52.433Z,101073.81
2023-09-09T22:05:45.647Z,101117.28
2023-09-09T22:10:38.070Z,101104.06
2023-09-09T22:15:30.093Z,101112.63
2023-09-09T22:20:22.152Z,101094.03
2023-09-09T22:25:15.968Z,101118.00
2023-09-09T22:30:08.662Z,101098.16
2023-09-09T22:35:06.049Z,101117.59
2023-09-09T22:39:58.205Z,101064.06
2023-09-09T22:44:50.426Z,101089.94
2023-09-09T22:49:42.843Z,101093.38
2023-09-09T22:54:35.163Z,101122.47
2023-09-09T22:59:28.709Z,101088.34
2023-09-09T23:04:21.042Z,101120.41
2023-09-09T23:09:13.297Z,101113.38
2023-09-09T23:14:05.574Z,101097.97
2023-09-09T23:18:58.318Z,101089.69
2023-09-09T23:23:50.517Z,101094.84
2023-09-09T23:28:43.541Z,101127.69
2023-09-09T23:33:35.927Z,101105.56
2023-09-09T23:38:28.300Z,101105.88
2023-09-09T23:43:20.586Z,101094.66
2023-09-09T23:48:14.545Z,101104.72
2023-09-09T23:53:06.778Z,101092.50
2023-09-09T23:57:58.954Z,101105.59
